createdAt,value
2023-04-13T00:01:16.487Z,99401.75
2023-04-13T00:03:46.097Z,99405.78
2023-04-13T00:06:15.555Z,99399.06
2023-04-13T00:08:45.618Z,99403.84
2023-04-13T00:11:16.594Z,99398.19
2023-04-13T00:13:47.611Z,99411.63
2023-04-13T00:16:20.652Z,99403.84
2023-04-13T00:18:50.014Z,99408.34
2023-04-13T00:21:19.601Z,99405.69
2023-04-13T00:23:48.989Z,99405.69
2023-04-13T00:26:20.737Z,99404.84
2023-04-13T00:28:50.137Z,99413.38
2023-04-13T00:31:22.474Z,99409.91
2023-04-13T00:33:51.852Z,99404.56
2023-04-13T00:36:21.301Z,99404.06
2023-04-13T00:38:50.617Z,99399.22
2023-04-13T00:41:19.949Z,99396.56
2023-04-13T00:43:49.318Z,99386.59
2023-04-13T00:46:19.153Z,99398.13
2023-04-13T00:48:51.284Z,99394.63
2023-04-13T00:51:21.706Z,99383.81
2023-04-13T00:53:51.818Z,99391.91
2023-04-13T00:56:23.074Z,99398.53
2023-04-13T00:58:52.541Z,99396.94
2023-04-13T01:01:23.448Z,99391.34
2023-04-13T01:03:55.655Z,99387.56
2023-04-13T01:06:32.079Z,99393.94
2023-04-13T01:09:11.546Z,99397.38
2023-04-13T01:11:46.257Z,99396.56
2023-04-13T01:14:24.963Z,99397.63
2023-04-13T01:16:58.590Z,99409.03
2023-04-13T01:19:45.377Z,99410.63
2023-04-13T01:22:16.420Z,99404.91
2023-04-13T01:25:00.787Z,99406.69
2023-04-13T01:27:47.482Z,99409.31
2023-04-13T01:30:18.281Z,99411.00
2023-04-13T01:32:48.006Z,99412.50
2023-04-13T01:35:20.147Z,99412.06
2023-04-13T01:37:50.321Z,99411.31
2023-04-13T01:40:20.498Z,99412.06
2023-04-13T01:42:52.560Z,99411.88
2023-04-13T01:45:25.087Z,99411.78
2023-04-13T01:48:03.244Z,99411.63
2023-04-13T01:50:36.642Z,99411.38
2023-04-13T01:53:11.481Z,99417.78
2023-04-13T01:55:42.836Z,99413.28
2023-04-13T01:58:17.188Z,99419.47
2023-04-13T02:00:47.586Z,99421.72
2023-04-13T02:03:17.039Z,99418.50
2023-04-13T02:05:46.545Z,99412.03
2023-04-13T02:08:18.441Z,99421.13
2023-04-13T02:10:49.136Z,99416.69
2023-04-13T02:13:21.048Z,99420.88
2023-04-13T02:15:50.640Z,99418.09
2023-04-13T02:18:19.970Z,99414.34
2023-04-13T02:20:49.261Z,99414.22
2023-04-13T02:23:18.577Z,99416.97
2023-04-13T02:25:48.365Z,99421.56
2023-04-13T02:28:18.245Z,99426.72
2023-04-13T02:30:51.295Z,99423.53
2023-04-13T02:33:21.650Z,99424.19
2023-04-13T02:35:50.994Z,99413.31
2023-04-13T02:38:20.474Z,99425.44
2023-04-13T02:40:49.771Z,99429.06
2023-04-13T02:43:19.065Z,99439.31
2023-04-13T02:45:52.008Z,99431.91
2023-04-13T02:48:21.877Z,99421.06
2023-04-13T02:50:52.206Z,99411.25
2023-04-13T02:53:22.184Z,99426.31
2023-04-13T02:55:53.815Z,99420.56
2023-04-13T02:58:24.034Z,99431.53
2023-04-13T03:00:56.693Z,99429.13
2023-04-13T03:03:26.130Z,99426.84
2023-04-13T03:05:55.449Z,99430.44
2023-04-13T03:08:26.056Z,99418.03
2023-04-13T03:10:55.616Z,99422.47
2023-04-13T03:13:25.038Z,99419.94
2023-04-13T03:15:57.985Z,99417.47
2023-04-13T03:18:27.465Z,99414.34
2023-04-13T03:20:56.784Z,99425.34
2023-04-13T03:23:28.788Z,99419.56
2023-04-13T03:25:58.141Z,99430.25
2023-04-13T03:28:27.522Z,99423.44
2023-04-13T03:30:59.518Z,99415.84
2023-04-13T03:33:28.906Z,99422.69
2023-04-13T03:35:58.216Z,99417.19
2023-04-13T03:38:27.622Z,99421.06
2023-04-13T03:40:56.956Z,99425.22
2023-04-13T03:43:26.569Z,99427.97
2023-04-13T03:45:58.922Z,99427.88
2023-04-13T03:48:28.399Z,99430.66
2023-04-13T03:50:57.705Z,99426.53
2023-04-13T03:53:27.205Z,99418.66
2023-04-13T03:55:56.767Z,99414.72
2023-04-13T03:58:26.773Z,99417.59
2023-04-13T04:00:58.945Z,99406.28
2023-04-13T04:03:28.431Z,99409.88
2023-04-13T04:05:57.788Z,99407.56
2023-04-13T04:08:27.817Z,99421.66
2023-04-13T04:10:57.210Z,99408.72
2023-04-13T04:13:26.680Z,99423.94
2023-04-13T04:15:56.410Z,99419.34
2023-04-13T04:18:28.352Z,99426.56
2023-04-13T04:20:57.650Z,99413.63
2023-04-13T04:23:28.362Z,99425.91
2023-04-13T04:25:59.420Z,99426.72
2023-04-13T04:28:30.580Z,99420.41
2023-04-13T04:31:03.205Z,99422.84
2023-04-13T04:33:35.115Z,99424.53
2023-04-13T04:36:04.456Z,99428.66
2023-04-13T04:38:33.769Z,99433.84
2023-04-13T04:41:03.072Z,99433.13
2023-04-13T04:43:32.578Z,99428.56
2023-04-13T04:46:03.366Z,99431.16
2023-04-13T04:48:37.859Z,99430.13
2023-04-13T04:51:08.604Z,99440.06
2023-04-13T04:53:37.938Z,99448.53
2023-04-13T04:56:08.093Z,99448.22
2023-04-13T04:58:37.399Z,99449.28
2023-04-13T05:01:07.056Z,99445.06
2023-04-13T05:03:38.978Z,99450.81
2023-04-13T05:06:09.517Z,99453.47
2023-04-13T05:08:38.898Z,99457.75
2023-04-13T05:11:09.159Z,99463.31
2023-04-13T05:13:38.511Z,99464.59
2023-04-13T05:16:08.881Z,99468.91
2023-04-13T05:18:46.595Z,99471.66
2023-04-13T05:21:16.957Z,99471.31
2023-04-13T05:23:46.624Z,99473.50
2023-04-13T05:26:16.738Z,99469.69
2023-04-13T05:28:46.228Z,99472.72
2023-04-13T05:31:15.918Z,99468.19
2023-04-13T05:33:48.251Z,99471.06
2023-04-13T05:36:17.747Z,99483.13
2023-04-13T05:38:47.135Z,99474.72
2023-04-13T05:41:16.450Z,99477.06
2023-04-13T05:43:46.308Z,99481.91
2023-04-13T05:46:16.204Z,99499.28
2023-04-13T05:48:48.103Z,99493.78
2023-04-13T05:51:17.947Z,99494.09
2023-04-13T05:53:47.515Z,99491.59
2023-04-13T05:56:17.092Z,99497.69
2023-04-13T05:58:46.512Z,99492.50
2023-04-13T06:01:16.863Z,99493.22
2023-04-13T06:03:49.131Z,99503.00
2023-04-13T06:06:19.347Z,99493.44
2023-04-13T06:08:48.715Z,99486.88
2023-04-13T06:11:18.643Z,99494.81
2023-04-13T06:13:47.925Z,99495.06
2023-04-13T06:16:18.841Z,99495.44
2023-04-13T06:18:50.925Z,99493.91
2023-04-13T06:21:20.340Z,99503.28
2023-04-13T06:23:50.697Z,99497.94
2023-04-13T06:26:20.123Z,99496.41
2023-04-13T06:28:49.440Z,99494.03
2023-04-13T06:31:18.866Z,99495.47
2023-04-13T06:33:50.800Z,99492.56
2023-04-13T06:36:20.606Z,99498.75
2023-04-13T06:38:49.948Z,99488.34
2023-04-13T06:41:19.301Z,99482.78
2023-04-13T06:43:48.795Z,99486.28
2023-04-13T06:46:19.877Z,99479.38
2023-04-13T06:48:53.485Z,99485.03
2023-04-13T06:51:22.783Z,99489.81
2023-04-13T06:53:53.909Z,99488.88
2023-04-13T06:56:23.227Z,99494.69
2023-04-13T06:58:52.540Z,99495.56
2023-04-13T07:01:22.012Z,99499.31
2023-04-13T07:03:54.092Z,99496.06
2023-04-13T07:06:23.777Z,99502.13
2023-04-13T07:08:53.446Z,99494.94
2023-04-13T07:11:22.766Z,99495.78
2023-04-13T07:13:52.128Z,99498.63
2023-04-13T07:16:21.824Z,99500.16
2023-04-13T07:18:54.206Z,99504.19
2023-04-13T07:21:23.535Z,99507.00
2023-04-13T07:23:52.919Z,99495.44
2023-04-13T07:26:22.295Z,99492.28
2023-04-13T07:28:51.642Z,99494.94
2023-04-13T07:31:21.168Z,99495.47
2023-04-13T07:33:50.928Z,99490.25
2023-04-13T07:36:23.676Z,99495.72
2023-04-13T07:38:53.048Z,99499.03
2023-04-13T07:41:22.840Z,99499.03
2023-04-13T07:43:52.231Z,99498.09
2023-04-13T07:46:27.123Z,99503.09
2023-04-13T07:48:56.898Z,99519.50
2023-04-13T07:51:29.998Z,99510.66
2023-04-13T07:53:59.360Z,99513.59
2023-04-13T07:56:28.900Z,99523.19
2023-04-13T07:58:58.494Z,99521.91
2023-04-13T08:01:28.039Z,99521.88
2023-04-13T08:03:57.578Z,99534.94
2023-04-13T08:06:30.049Z,99522.66
2023-04-13T08:08:59.628Z,99544.28
2023-04-13T08:11:29.188Z,99544.06
2023-04-13T08:13:58.625Z,99552.50
2023-04-13T08:16:33.490Z,99541.97
2023-04-13T08:19:03.903Z,99558.69
2023-04-13T08:21:37.586Z,99545.47
2023-04-13T08:24:08.108Z,99550.13
2023-04-13T08:26:37.498Z,99554.44
2023-04-13T08:29:06.867Z,99540.53
2023-04-13T08:31:36.217Z,99548.91
2023-04-13T08:34:05.523Z,99551.00
2023-04-13T08:36:37.974Z,99568.69
2023-04-13T08:39:09.911Z,99572.19
2023-04-13T08:41:42.032Z,99566.53
2023-04-13T08:44:11.469Z,99572.66
2023-04-13T08:46:41.128Z,99588.28
2023-04-13T08:49:12.341Z,99583.66
2023-04-13T08:51:46.014Z,99589.13
2023-04-13T08:54:16.435Z,99579.72
2023-04-13T08:56:50.581Z,99580.25
2023-04-13T08:59:21.715Z,99595.91
2023-04-13T09:01:52.762Z,99583.00
2023-04-13T09:04:25.275Z,99590.81
2023-04-13T09:06:57.888Z,99583.59
2023-04-13T09:09:27.854Z,99588.16
2023-04-13T09:11:57.196Z,99601.84
2023-04-13T09:14:27.183Z,99588.69
2023-04-13T09:16:56.870Z,99592.97
2023-04-13T09:19:32.928Z,99599.22
2023-04-13T09:22:15.308Z,99597.31
2023-04-13T09:24:44.906Z,99584.69
2023-04-13T09:27:21.035Z,99593.03
2023-04-13T09:29:54.899Z,99601.34
2023-04-13T09:32:25.959Z,99606.44
2023-04-13T09:35:06.300Z,99612.34
2023-04-13T09:37:40.268Z,99621.72
2023-04-13T09:40:14.050Z,99613.16
2023-04-13T09:42:45.357Z,99627.41
2023-04-13T09:45:14.661Z,99630.88
2023-04-13T09:47:45.817Z,99631.44
2023-04-13T09:50:28.316Z,99634.69
2023-04-13T09:53:10.771Z,99640.34
2023-04-13T09:55:41.956Z,99658.88
2023-04-13T09:58:12.720Z,99648.41
2023-04-13T10:00:45.684Z,99647.88
2023-04-13T10:03:16.626Z,99661.31
2023-04-13T10:08:34.533Z,99664.31
2023-04-13T10:11:10.597Z,99659.97
2023-04-13T10:13:47.537Z,99671.25
2023-04-13T10:16:41.033Z,99666.94
2023-04-13T10:19:14.860Z,99674.50
2023-04-13T10:21:47.678Z,99673.94
2023-04-13T10:24:22.052Z,99679.03
2023-04-13T10:26:56.340Z,99683.59
2023-04-13T10:29:32.874Z,99679.31
2023-04-13T10:32:04.166Z,99694.34
2023-04-13T10:34:35.879Z,99695.16
2023-04-13T10:37:07.014Z,99704.03
2023-04-13T10:39:39.026Z,99709.41
2023-04-13T10:42:10.572Z,99723.09
2023-04-13T10:44:46.741Z,99726.53
2023-04-13T10:47:17.375Z,99719.66
2023-04-13T10:49:47.811Z,99725.31
2023-04-13T10:52:17.956Z,99726.38
2023-04-13T10:54:49.958Z,99724.53
2023-04-13T10:57:19.291Z,99730.16
2023-04-13T10:59:58.817Z,99723.44
2023-04-13T11:02:33.444Z,99725.88
2023-04-13T11:05:03.347Z,99721.28
2023-04-13T11:07:33.731Z,99715.38
2023-04-13T11:10:07.148Z,99728.81
2023-04-13T11:12:36.633Z,99732.06
2023-04-13T11:15:06.541Z,99730.41
2023-04-13T11:17:35.934Z,99734.19
2023-04-13T11:20:09.121Z,99723.91
2023-04-13T11:22:39.642Z,99737.84
2023-04-13T11:25:12.686Z,99730.34
2023-04-13T11:27:42.074Z,99735.50
2023-04-13T11:30:13.383Z,99732.03
2023-04-13T11:32:44.313Z,99737.41
2023-04-13T11:35:15.454Z,99740.91
2023-04-13T11:37:47.164Z,99741.44
2023-04-13T11:40:21.627Z,99752.31
2023-04-13T11:42:53.567Z,99748.06
2023-04-13T11:45:24.485Z,99768.78
2023-04-13T11:47:54.662Z,99764.25
2023-04-13T11:50:25.234Z,99758.59
2023-04-13T11:52:57.308Z,99775.06
2023-04-13T11:55:31.351Z,99767.78
2023-04-13T11:58:08.979Z,99774.50
2023-04-13T12:00:42.062Z,99761.03
2023-04-13T12:05:50.101Z,99772.13
2023-04-13T12:08:27.086Z,99767.50
2023-04-13T12:13:53.589Z,99777.59
2023-04-13T12:17:01.641Z,99786.53
2023-04-13T12:19:27.119Z,99770.97
2023-04-13T12:21:57.992Z,99775.22
2023-04-13T12:24:42.633Z,99777.44
2023-04-13T12:27:18.930Z,99777.63
2023-04-13T12:29:49.158Z,99782.00
2023-04-13T12:32:18.555Z,99790.28
2023-04-13T12:34:49.088Z,99797.56
2023-04-13T12:37:18.439Z,99799.41
2023-04-13T12:39:47.770Z,99799.72
2023-04-13T12:42:19.644Z,99794.91
2023-04-13T12:44:48.979Z,99810.78
2023-04-13T12:47:18.359Z,99810.53
2023-04-13T12:49:47.699Z,99815.59
2023-04-13T12:52:17.043Z,99814.28
2023-04-13T12:54:46.498Z,99807.81
2023-04-13T12:57:18.807Z,99811.59
2023-04-13T12:59:48.214Z,99814.28
2023-04-13T13:02:18.197Z,99822.91
2023-04-13T13:04:47.580Z,99828.31
2023-04-13T13:07:17.208Z,99824.50
2023-04-13T13:09:46.658Z,99827.72
2023-04-13T13:12:16.040Z,99832.63
2023-04-13T13:14:47.976Z,99837.13
2023-04-13T13:17:17.340Z,99838.53
2023-04-13T13:19:46.703Z,99838.47
2023-04-13T13:22:16.058Z,99844.19
2023-04-13T13:24:45.358Z,99839.31
2023-04-13T13:27:48.518Z,99839.06
2023-04-13T13:30:08.378Z,99848.50
2023-04-13T13:32:38.165Z,99848.47
2023-04-13T13:35:10.755Z,99847.16
2023-04-13T13:37:40.140Z,99848.19
2023-04-13T13:40:13.234Z,99854.34
2023-04-13T13:42:52.044Z,99857.59
2023-04-13T13:45:24.904Z,99868.66
2023-04-13T13:47:55.941Z,99872.97
2023-04-13T13:50:25.339Z,99874.00
2023-04-13T13:53:03.715Z,99871.84
2023-04-13T13:55:36.785Z,99880.16
2023-04-13T13:58:06.107Z,99887.44
2023-04-13T14:00:38.097Z,99891.56
2023-04-13T14:03:07.727Z,99886.66
2023-04-13T14:05:37.550Z,99889.88
2023-04-13T14:08:07.445Z,99893.06
2023-04-13T14:10:37.791Z,99899.22
2023-04-13T14:13:07.505Z,99903.47
2023-04-13T14:15:39.450Z,99908.69
2023-04-13T14:18:11.229Z,99912.19
2023-04-13T14:20:43.996Z,99904.03
2023-04-13T14:23:13.385Z,99919.53
2023-04-13T14:25:42.739Z,99923.31
2023-04-13T14:28:12.089Z,99917.06
2023-04-13T14:30:45.119Z,99925.47
2023-04-13T14:33:16.584Z,99925.47
2023-04-13T14:35:45.952Z,99926.81
2023-04-13T14:38:15.857Z,99928.44
2023-04-13T14:40:45.554Z,99924.94
2023-04-13T14:43:15.534Z,99931.41
2023-04-13T14:45:47.486Z,99930.06
2023-04-13T14:48:17.661Z,99938.72
2023-04-13T14:50:47.497Z,99934.91
2023-04-13T14:53:17.812Z,99938.72
2023-04-13T14:55:47.669Z,99938.44
2023-04-13T14:58:17.129Z,99938.44
2023-04-13T15:00:49.800Z,99939.22
2023-04-13T15:03:19.227Z,99950.78
2023-04-13T15:05:50.028Z,99951.63
2023-04-13T15:08:19.788Z,99958.63
2023-04-13T15:10:49.082Z,99962.41
2023-04-13T15:13:18.461Z,99962.41
2023-04-13T15:15:52.224Z,99979.66
2023-04-13T15:18:21.827Z,100005.28
2023-04-13T15:20:51.186Z,100016.03
2023-04-13T15:23:20.934Z,100020.03
2023-04-13T15:25:50.233Z,100023.81
2023-04-13T15:28:19.554Z,100027.00
2023-04-13T15:30:51.970Z,100036.19
2023-04-13T15:33:21.651Z,100046.13
2023-04-13T15:35:51.792Z,100048.53
2023-04-13T15:38:21.112Z,100037.78
2023-04-13T15:40:50.435Z,100043.69
2023-04-13T15:43:19.737Z,100042.91
2023-04-13T15:45:51.644Z,100047.19
2023-04-13T15:48:21.184Z,100048.59
2023-04-13T15:50:50.542Z,100049.13
2023-04-13T15:53:19.902Z,100056.94
2023-04-13T15:55:49.198Z,100050.75
2023-04-13T15:58:18.542Z,100068.53
2023-04-13T16:00:47.923Z,100070.44
2023-04-13T16:03:19.972Z,100083.63
2023-04-13T16:05:51.808Z,100085.81
2023-04-13T16:08:21.422Z,100087.09
2023-04-13T16:10:51.325Z,100092.25
2023-04-13T16:13:22.239Z,100100.34
2023-04-13T16:15:55.723Z,100101.97
2023-04-13T16:18:30.288Z,100105.41
2023-04-13T16:21:02.452Z,100109.78
2023-04-13T16:23:32.400Z,100110.00
2023-04-13T16:26:02.889Z,100111.63
2023-04-13T16:28:32.376Z,100111.59
2023-04-13T16:31:02.476Z,100120.53
2023-04-13T16:33:34.439Z,100112.16
2023-04-13T16:36:03.743Z,100117.53
2023-04-13T16:38:33.542Z,100117.88
2023-04-13T16:41:02.842Z,100114.31
2023-04-13T16:43:32.157Z,100112.16
2023-04-13T16:46:01.568Z,100110.28
2023-04-13T16:48:31.503Z,100112.16
2023-04-13T16:51:04.661Z,100114.81
2023-04-13T16:53:34.282Z,100119.78
2023-04-13T16:56:03.582Z,100133.28
2023-04-13T16:58:32.890Z,100124.94
2023-04-13T17:01:02.210Z,100133.22
2023-04-13T17:03:32.034Z,100129.97
2023-04-13T17:06:04.132Z,100129.16
2023-04-13T17:08:33.841Z,100129.69
2023-04-13T17:11:04.830Z,100135.94
2023-04-13T17:13:36.450Z,100140.00
2023-04-13T17:16:06.365Z,100142.94
2023-04-13T17:18:35.804Z,100148.34
2023-04-13T17:21:08.025Z,100151.34
2023-04-13T17:23:37.344Z,100161.84
2023-04-13T17:26:07.582Z,100158.09
2023-04-13T17:28:36.900Z,100161.34
2023-04-13T17:31:06.247Z,100166.72
2023-04-13T17:33:36.073Z,100181.56
2023-04-13T17:36:08.135Z,100182.91
2023-04-13T17:38:37.458Z,100177.00
2023-04-13T17:41:06.794Z,100191.00
2023-04-13T17:43:36.102Z,100184.53
2023-04-13T17:46:05.557Z,100199.91
2023-04-13T17:48:34.920Z,100207.19
2023-04-13T17:51:04.240Z,100214.75
2023-04-13T17:53:36.193Z,100215.84
2023-04-13T17:56:05.607Z,100220.13
2023-04-13T17:58:36.987Z,100217.94
2023-04-13T18:01:10.696Z,100228.75
2023-04-13T18:03:40.940Z,100229.81
2023-04-13T18:06:10.447Z,100235.75
2023-04-13T18:08:43.017Z,100240.09
2023-04-13T18:11:12.331Z,100242.19
2023-04-13T18:13:42.749Z,100239.53
2023-04-13T18:16:14.458Z,100247.06
2023-04-13T18:18:44.387Z,100248.94
2023-04-13T18:21:13.698Z,100254.31
2023-04-13T18:23:45.791Z,100264.31
2023-04-13T18:26:15.095Z,100264.84
2023-04-13T18:28:44.525Z,100260.56
2023-04-13T18:31:13.884Z,100265.72
2023-04-13T18:33:44.164Z,100272.41
2023-04-13T18:36:16.732Z,100270.50
2023-04-13T18:38:48.993Z,100273.19
2023-04-13T18:41:18.332Z,100273.72
2023-04-13T18:43:47.645Z,100271.84
2023-04-13T18:46:17.006Z,100283.16
2023-04-13T18:48:46.330Z,100279.38
2023-04-13T18:51:15.656Z,100278.31
2023-04-13T18:53:45.804Z,100278.84
2023-04-13T18:56:17.698Z,100295.03
2023-04-13T18:58:47.065Z,100300.13
2023-04-13T19:01:20.002Z,100300.38
2023-04-13T19:03:51.896Z,100305.25
2023-04-13T19:06:21.638Z,100310.09
2023-04-13T19:08:51.069Z,100312.53
2023-04-13T19:11:27.661Z,100316.06
2023-04-13T19:13:57.157Z,100317.13
2023-04-13T19:16:28.488Z,100314.44
2023-04-13T19:18:57.879Z,100315.94
2023-04-13T19:21:27.368Z,100328.69
2023-04-13T19:23:58.215Z,100330.31
2023-04-13T19:26:30.628Z,100331.97
2023-04-13T19:29:01.012Z,100331.69
2023-04-13T19:31:30.381Z,100332.75
2023-04-13T19:33:59.996Z,100330.63
2023-04-13T19:36:29.580Z,100331.69
2023-04-13T19:39:04.479Z,100344.13
2023-04-13T19:41:38.080Z,100348.66
2023-04-13T19:44:08.918Z,100351.34
2023-04-13T19:46:38.834Z,100346.91
2023-04-13T19:49:08.278Z,100354.84
2023-04-13T19:51:38.144Z,100352.41
2023-04-13T19:54:07.839Z,100354.81
2023-04-13T19:56:39.772Z,100357.53
2023-04-13T19:59:09.712Z,100357.75
2023-04-13T20:01:40.983Z,100359.09
2023-04-13T20:04:10.724Z,100368.59
2023-04-13T20:06:40.352Z,100380.03
2023-04-13T20:09:10.872Z,100378.84
2023-04-13T20:11:43.567Z,100379.53
2023-04-13T20:14:13.929Z,100373.94
2023-04-13T20:16:43.239Z,100379.06
2023-04-13T20:19:12.660Z,100379.09
2023-04-13T20:21:42.112Z,100382.31
2023-04-13T20:24:11.693Z,100385.78
2023-04-13T20:26:43.770Z,100379.09
2023-04-13T20:29:13.102Z,100389.88
2023-04-13T20:31:42.490Z,100390.88
2023-04-13T20:34:13.673Z,100396.81
2023-04-13T20:36:43.007Z,100397.81
2023-04-13T20:39:13.708Z,100399.75
2023-04-13T20:41:55.257Z,100396.56
2023-04-13T20:44:27.498Z,100394.59
2023-04-13T20:46:57.648Z,100398.66
2023-04-13T20:49:27.264Z,100395.31
2023-04-13T20:51:57.375Z,100400.56
2023-04-13T20:54:27.330Z,100396.03
2023-04-13T20:56:59.225Z,100399.09
2023-04-13T20:59:28.625Z,100399.66
2023-04-13T21:01:58.065Z,100401.53
2023-04-13T21:04:27.614Z,100409.56
2023-04-13T21:06:56.921Z,100414.66
2023-04-13T21:09:26.262Z,100409.72
2023-04-13T21:11:56.686Z,100417.72
2023-04-13T21:14:28.588Z,100420.50
2023-04-13T21:16:58.135Z,100412.78
2023-04-13T21:19:29.842Z,100408.06
2023-04-13T21:21:59.144Z,100398.09
2023-04-13T21:24:28.457Z,100398.44
2023-04-13T21:26:58.153Z,100398.66
2023-04-13T21:29:30.060Z,100391.13
2023-04-13T21:31:59.414Z,100391.34
2023-04-13T21:34:28.923Z,100401.03
2023-04-13T21:36:58.284Z,100399.44
2023-04-13T21:39:27.595Z,100407.78
2023-04-13T21:41:56.896Z,100402.91
2023-04-13T21:44:29.952Z,100401.53
2023-04-13T21:47:02.254Z,100408.19
2023-04-13T21:49:31.581Z,100409.22
2023-04-13T21:52:00.940Z,100406.50
2023-04-13T21:54:30.348Z,100404.88
2023-04-13T21:56:59.661Z,100404.84
2023-04-13T21:59:29.192Z,100403.97
2023-04-13T22:01:58.682Z,100404.16
2023-04-13T22:04:31.003Z,100414.38
2023-04-13T22:07:00.513Z,100416.81
2023-04-13T22:09:32.896Z,100409.41
2023-04-13T22:12:02.244Z,100417.66
2023-04-13T22:14:31.573Z,100413.59
2023-04-13T22:17:00.881Z,100414.13
2023-04-13T22:19:32.815Z,100417.47
2023-04-13T22:22:02.097Z,100420.09
2023-04-13T22:24:31.388Z,100420.84
2023-04-13T22:27:00.726Z,100425.38
2023-04-13T22:29:30.020Z,100419.56
2023-04-13T22:31:59.531Z,100422.75
2023-04-13T22:34:28.936Z,100417.75
2023-04-13T22:37:00.832Z,100410.13
2023-04-13T22:39:31.829Z,100422.19
2023-04-13T22:42:03.268Z,100416.56
2023-04-13T22:44:35.142Z,100422.13
2023-04-13T22:47:05.260Z,100419.25
2023-04-13T22:49:34.676Z,100434.69
2023-04-13T22:52:07.140Z,100443.03
2023-04-13T22:54:36.432Z,100442.75
2023-04-13T22:57:06.136Z,100447.72
2023-04-13T22:59:35.735Z,100449.69
2023-04-13T23:02:05.188Z,100446.28
2023-04-13T23:04:34.942Z,100453.28
2023-04-13T23:07:07.114Z,100448.72
2023-04-13T23:09:36.427Z,100460.09
2023-04-13T23:12:05.933Z,100463.03
2023-04-13T23:14:35.251Z,100466.78
2023-04-13T23:17:04.550Z,100470.34
2023-04-13T23:19:33.863Z,100475.16
2023-04-13T23:22:03.195Z,100480.84
2023-04-13T23:24:35.109Z,100478.84
2023-04-13T23:27:04.430Z,100478.91
2023-04-13T23:29:33.940Z,100487.28
2023-04-13T23:32:06.610Z,100485.41
2023-04-13T23:34:36.062Z,100493.91
2023-04-13T23:37:05.576Z,100487.66
2023-04-13T23:39:37.628Z,100480.41
2023-04-13T23:42:08.630Z,100477.03
2023-04-13T23:44:37.950Z,100484.34
2023-04-13T23:47:08.209Z,100483.53
2023-04-13T23:49:37.735Z,100482.50
2023-04-13T23:52:07.728Z,100477.34
2023-04-13T23:54:39.705Z,100481.66
2023-04-13T23:57:09.828Z,100482.44
2023-04-13T23:59:39.304Z,100480.22
